Time;durP1;ratioP1;P1;durP2;ratioP2;P2;SDS_P1;SDS_P2;PMS_P1;PMS_P2;Temp;Humidity;BMP_temperature;BMP_pressure;BME280_temperature;BME280_humidity;BME280_pressure;Samples;Min_cycle;Max_cycle;Signal;HPM_P1;HPM_P2
2023/01/09 00:02:11;;;;;;;2.38;0.73;;;20.60;45.80;;;;;;6059558;29;20059;-51
2023/01/09 00:05:14;;;;;;;;;;;20.50;45.70;;;;;;6068834;29;20045;-47
2023/01/09 00:08:17;;;;;;;1.45;0.70;;;20.30;45.80;;;;;;6064894;29;19924;-49
2023/01/09 00:11:19;;;;;;;2.17;0.70;;;20.50;45.70;;;;;;6068704;29;20049;-48
2023/01/09 00:14:21;;;;;;;1.55;0.57;;;20.50;45.60;;;;;;6074208;29;20053;-49
2023/01/09 00:17:23;;;;;;;0.90;0.50;;;20.50;45.60;;;;;;6056182;29;20052;-47
2023/01/09 00:20:24;;;;;;;;;;;20.00;45.30;;;;;;6068721;29;20066;-49
2023/01/09 00:23:26;;;;;;;0.93;0.40;;;20.30;45.80;;;;;;6066568;29;19923;-50
2023/01/09 00:26:28;;;;;;;1.73;0.75;;;20.50;45.50;;;;;;6047177;29;20041;-49
2023/01/09 00:29:31;;;;;;;1.17;0.40;;;20.50;45.30;;;;;;6046026;29;20580;-45
2023/01/09 00:32:32;;;;;;;1.20;0.50;;;20.50;45.30;;;;;;6044953;29;20041;-51
2023/01/09 00:35:34;;;;;;;;;;;20.10;45.00;;;;;;6044368;29;20056;-49
2023/01/09 00:38:37;;;;;;;0.93;0.55;;;20.80;45.50;;;;;;6061965;29;19943;-47
2023/01/09 00:41:40;;;;;;;1.98;0.60;;;20.30;44.90;;;;;;6045348;29;20045;-50
2023/01/09 00:44:48;;;;;;;0.98;0.60;;;19.40;44.50;;;;;;6044333;29;20049;-49
2023/01/09 00:47:51;;;;;;;1.27;0.50;;;20.10;44.70;;;;;;6061427;29;20108;-49
2023/01/09 00:50:55;;;;;;;1.23;0.60;;;20.40;44.90;;;;;;6060556;29;20048;-49
2023/01/09 00:53:57;;;;;;;1.95;1.00;;;20.50;44.90;;;;;;6060298;29;20045;-48
2023/01/09 00:56:59;;;;;;;1.10;0.55;;;20.40;44.80;;;;;;6060167;29;20041;-50
2023/01/09 01:00:01;;;;;;;1.48;0.57;;;20.30;44.80;;;;;;6061553;29;20041;-47
2023/01/09 01:03:02;;;;;;;1.67;0.95;;;20.40;44.70;;;;;;6060507;29;20049;-48
2023/01/09 01:09:21;;;;;;;1.75;0.80;;;20.40;44.70;;;;;;6047100;29;20484;-49
2023/01/09 01:12:22;;;;;;;1.00;0.50;;;20.40;44.70;;;;;;6063612;29;20049;-50
2023/01/09 01:15:28;;;;;;;1.17;0.50;;;20.70;44.90;;;;;;6063077;29;20045;-50
2023/01/09 01:18:29;;;;;;;1.08;0.60;;;20.40;44.70;;;;;;6061262;29;20041;-51
2023/01/09 01:21:30;;;;;;;;;;;20.50;44.60;;;;;;6060329;29;20061;-49
2023/01/09 01:24:33;;;;;;;1.48;0.30;;;20.40;44.80;;;;;;6060860;29;19935;-49
2023/01/09 01:27:34;;;;;;;1.00;0.50;;;20.40;44.50;;;;;;6060955;29;20049;-48
2023/01/09 01:30:37;;;;;;;0.45;0.28;;;19.90;44.00;;;;;;6060359;29;20052;-48
2023/01/09 01:33:38;;;;;;;0.70;0.30;;;20.40;44.00;;;;;;6060024;29;20044;-50
2023/01/09 01:36:40;;;;;;;;;;;20.30;43.80;;;;;;6047164;29;20049;-48
2023/01/09 01:39:42;;;;;;;0.40;0.15;;;20.90;44.60;;;;;;6063363;29;19927;-47
2023/01/09 01:42:46;;;;;;;0.20;0.20;;;20.40;44.00;;;;;;6067464;29;20041;-46
2023/01/09 01:45:47;;;;;;;1.20;0.28;;;20.30;43.50;;;;;;6035804;29;20056;-48
2023/01/09 01:48:54;;;;;;;0.20;0.20;;;20.10;43.30;;;;;;6064712;29;20037;-50
2023/01/09 01:51:55;;;;;;;0.47;0.20;;;20.40;43.20;;;;;;6063842;29;20053;-52
2023/01/09 01:54:57;;;;;;;0.05;0.03;;;20.50;43.30;;;;;;6061847;29;20049;-48
2023/01/09 01:58:04;;;;;;;0.57;0.28;;;20.30;43.00;;;;;;6063337;29;20045;-49
2023/01/09 02:01:06;;;;;;;0.30;0.20;;;20.50;43.00;;;;;;6048548;29;20045;-50
2023/01/09 02:04:09;;;;;;;0.40;0.35;;;20.50;42.90;;;;;;6062875;29;20468;-49
2023/01/09 02:07:11;;;;;;;0.70;0.30;;;20.50;42.80;;;;;;6062275;29;20037;-48
2023/01/09 02:10:14;;;;;;;0.22;0.20;;;20.30;42.60;;;;;;6061310;29;20109;-48
2023/01/09 02:13:16;;;;;;;0.20;0.10;;;20.50;42.60;;;;;;6060515;29;20073;-49
2023/01/09 02:16:32;;;;;;;0.43;0.20;;;20.20;42.40;;;;;;6061478;29;20041;-49
2023/01/09 02:20:10;;;;;;;0.93;0.45;;;20.50;42.20;;;;;;6059437;29;20045;-50
2023/01/09 02:23:40;;;;;;;0.20;0.20;;;20.40;42.10;;;;;;6046814;29;20045;-48
2023/01/09 02:26:59;;;;;;;0.43;0.30;;;20.40;42.20;;;;;;6048039;29;20055;-48
2023/01/09 02:30:21;;;;;;;0.35;0.30;;;20.30;42.00;;;;;;6063034;29;20045;-48
2023/01/09 02:33:34;;;;;;;0.30;0.20;;;20.50;42.10;;;;;;6051284;29;20428;-47
2023/01/09 02:36:46;;;;;;;0.50;0.30;;;20.50;41.90;;;;;;6065238;29;20044;-47
2023/01/09 02:39:54;;;;;;;0.63;0.25;;;20.40;41.80;;;;;;6060031;29;20056;-48
2023/01/09 02:42:57;;;;;;;0.95;0.30;;;20.50;41.80;;;;;;6043517;29;20045;-49
2023/01/09 02:45:59;;;;;;;0.55;0.30;;;20.60;41.80;;;;;;6042886;29;20093;-49
2023/01/09 02:49:01;;;;;;;0.47;0.35;;;20.40;41.80;;;;;;6060448;29;20037;-49
2023/01/09 02:52:13;;;;;;;;;;;20.50;41.70;;;;;;6061232;29;20044;-45
2023/01/09 02:55:24;;;;;;;0.80;0.30;;;20.50;42.00;;;;;;6061344;29;19930;-48
2023/01/09 02:58:39;;;;;;;0.45;0.30;;;20.50;41.80;;;;;;6061193;29;20045;-49
2023/01/09 03:01:50;;;;;;;0.30;0.30;;;20.50;41.70;;;;;;6060873;29;20093;-49
2023/01/09 03:05:00;;;;;;;0.35;0.20;;;20.40;41.60;;;;;;6044217;29;20101;-50
2023/01/09 03:08:05;;;;;;;0.65;0.30;;;20.50;41.70;;;;;;6061392;29;20109;-49
2023/01/09 03:11:08;;;;;;;1.13;0.30;;;20.40;41.60;;;;;;6044699;29;20052;-50
2023/01/09 03:14:14;;;;;;;0.43;0.30;;;20.30;41.60;;;;;;6060888;29;20041;-50
2023/01/09 03:17:24;;;;;;;0.95;0.32;;;20.10;41.40;;;;;;6060624;29;20037;-49
2023/01/09 03:20:26;;;;;;;0.68;0.20;;;20.50;41.60;;;;;;6060749;29;20048;-49
2023/01/09 03:23:45;;;;;;;0.70;0.38;;;20.40;41.70;;;;;;6060994;29;20041;-50
2023/01/09 03:26:46;;;;;;;0.30;0.20;;;20.40;41.60;;;;;;6044240;29;20052;-50
2023/01/09 03:29:48;;;;;;;0.77;0.38;;;20.40;41.70;;;;;;6061212;29;20042;-50
2023/01/09 03:32:50;;;;;;;;;;;20.60;41.90;;;;;;6061584;29;20041;-49
2023/01/09 03:35:51;;;;;;;0.45;0.28;;;20.40;42.10;;;;;;6061298;29;19927;-47
2023/01/09 03:38:53;;;;;;;0.85;0.40;;;20.60;42.00;;;;;;6061512;29;20526;-46
2023/01/09 03:41:54;;;;;;;;;;;20.30;41.80;;;;;;6061406;29;20156;-51
2023/01/09 03:44:55;;;;;;;0.75;0.35;;;20.30;42.10;;;;;;6060923;29;19924;-50
2023/01/09 03:47:58;;;;;;;0.98;0.35;;;20.40;41.90;;;;;;6060561;29;20072;-47
2023/01/09 03:50:59;;;;;;;0.73;0.30;;;20.40;41.80;;;;;;6060782;29;20048;-49
2023/01/09 03:54:01;;;;;;;0.80;0.32;;;20.50;41.80;;;;;;6060846;29;20041;-46
2023/01/09 03:57:02;;;;;;;0.63;0.30;;;20.40;41.70;;;;;;6060962;29;20052;-50
2023/01/09 04:00:04;;;;;;;;;;;20.50;41.70;;;;;;6060639;29;20045;-47
2023/01/09 04:03:14;;;;;;;0.73;0.20;;;20.30;41.80;;;;;;6061640;29;20390;-48
2023/01/09 04:06:16;;;;;;;0.80;0.43;;;20.30;41.60;;;;;;6046328;29;20041;-47
2023/01/09 04:09:17;;;;;;;0.50;0.22;;;20.40;41.60;;;;;;6063519;29;20078;-48
2023/01/09 04:12:18;;;;;;;;;;;20.30;41.40;;;;;;6071955;29;20044;-52
2023/01/09 04:18:52;;;;;;;;;;;20.10;41.80;;;;;;7319557;23;20833;-48
2023/01/09 04:21:53;;;;;;;;;;;20.20;43.90;;;;;;6067259;29;19928;-51
2023/01/09 04:24:54;;;;;;;;;;;20.50;44.30;;;;;;6067736;29;19932;-50
2023/01/09 04:35:57;;;;;;;;;;;20.40;44.70;;;;;;6065622;29;19920;-49
2023/01/09 04:38:59;;;;;;;;;;;20.60;46.90;;;;;;6064042;29;19928;-50
2023/01/09 04:42:00;;;;;;;;;;;20.20;46.70;;;;;;6062616;29;19924;-48
2023/01/09 04:45:01;;;;;;;;;;;20.30;46.70;;;;;;6062458;29;19915;-51
2023/01/09 04:48:03;;;;;;;;;;;20.40;46.80;;;;;;6064394;29;19908;-51
2023/01/09 04:51:05;;;;;;;;;;;20.40;46.70;;;;;;6064307;29;19924;-48
2023/01/09 04:54:06;;;;;;;;;;;20.20;46.60;;;;;;6063740;29;19924;-47
2023/01/09 04:57:08;;;;;;;;;;;20.50;47.50;;;;;;6064390;29;19949;-46
2023/01/09 05:00:10;;;;;;;;;;;20.40;46.80;;;;;;6061303;29;19928;-49
2023/01/09 05:03:12;;;;;;;;;;;20.10;46.60;;;;;;6061364;29;19924;-51
2023/01/09 05:06:14;;;;;;;;;;;20.30;46.80;;;;;;6062764;29;19924;-49
2023/01/09 05:09:15;;;;;;;;;;;20.20;46.80;;;;;;6064069;29;19931;-51
2023/01/09 05:12:16;;;;;;;;;;;20.40;46.90;;;;;;6063278;29;19924;-50
2023/01/09 05:15:18;;;;;;;;;;;20.50;47.00;;;;;;6062828;29;19949;-52
2023/01/09 05:18:19;;;;;;;;;;;20.40;46.90;;;;;;6063773;29;19928;-47
2023/01/09 05:21:21;;;;;;;;;;;20.70;47.10;;;;;;6063488;29;19935;-50
2023/01/09 05:24:22;;;;;;;;;;;20.50;46.90;;;;;;6063322;29;19924;-49
2023/01/09 05:27:23;;;;;;;;;;;20.40;47.00;;;;;;6063488;29;19924;-51
2023/01/09 05:30:25;;;;;;;;;;;20.40;46.90;;;;;;6062688;29;19924;-50
2023/01/09 05:33:26;;;;;;;;;;;20.40;47.00;;;;;;6062371;29;19923;-49
2023/01/09 05:36:28;;;;;;;;;;;20.40;47.00;;;;;;6061779;29;19912;-51
2023/01/09 05:39:29;;;;;;;;;;;20.50;46.90;;;;;;6061856;29;19935;-51
2023/01/09 05:42:31;;;;;;;;;;;20.30;47.10;;;;;;6062407;29;19912;-49
2023/01/09 05:45:32;;;;;;;;;;;20.30;47.00;;;;;;6062146;29;19923;-51
2023/01/09 05:48:33;;;;;;;;;;;20.30;47.10;;;;;;6061828;29;19924;-49
2023/01/09 05:51:35;;;;;;;;;;;20.70;47.30;;;;;;6062193;29;19924;-52
2023/01/09 05:54:37;;;;;;;;;;;20.40;47.10;;;;;;6061659;29;19935;-52
2023/01/09 05:57:38;;;;;;;;;;;20.80;47.40;;;;;;6061696;29;19908;-53
2023/01/09 06:00:39;;;;;;;;;;;20.30;47.10;;;;;;6061757;29;19928;-52
2023/01/09 06:03:41;;;;;;;;;;;20.40;47.20;;;;;;6061931;29;19924;-52
2023/01/09 06:06:42;;;;;;;;;;;20.40;47.20;;;;;;6061917;29;20320;-51
2023/01/09 06:09:44;;;;;;;;;;;20.30;47.30;;;;;;6061734;29;19923;-50
2023/01/09 06:12:46;;;;;;;;;;;20.40;47.30;;;;;;6063751;29;19915;-53
2023/01/09 06:15:48;;;;;;;;;;;20.20;47.10;;;;;;6064970;29;19908;-52
2023/01/09 06:18:49;;;;;;;;;;;20.40;47.10;;;;;;6064313;29;19961;-51
2023/01/09 06:21:52;;;;;;;;;;;20.40;47.40;;;;;;6063260;29;19924;-50
2023/01/09 06:24:53;;;;;;;;;;;20.40;47.30;;;;;;6063554;29;19933;-51
2023/01/09 06:27:55;;;;;;;;;;;20.40;47.40;;;;;;6063108;29;19924;-49
2023/01/09 06:30:56;;;;;;;;;;;20.40;47.30;;;;;;6062939;29;19931;-51
2023/01/09 06:33:57;;;;;;;;;;;20.70;47.50;;;;;;6062806;29;19924;-50
2023/01/09 06:36:59;;;;;;;;;;;20.30;47.40;;;;;;6063646;29;19924;-49
2023/01/09 06:40:00;;;;;;;;;;;20.40;47.40;;;;;;6063311;29;19924;-49
2023/01/09 06:43:02;;;;;;;;;;;20.20;47.90;;;;;;6062587;29;19924;-51
2023/01/09 06:46:04;;;;;;;;;;;20.50;47.40;;;;;;6062123;29;19908;-51
2023/01/09 06:49:07;;;;;;;;;;;20.30;47.20;;;;;;6063081;29;19908;-51
2023/01/09 06:52:11;;;;;;;;;;;20.50;47.30;;;;;;6063020;29;19907;-52
2023/01/09 06:55:12;;;;;;;;;;;20.40;47.40;;;;;;6062201;29;19924;-49
2023/01/09 06:58:14;;;;;;;;;;;20.20;47.20;;;;;;6062876;29;19924;-52
2023/01/09 07:01:15;;;;;;;;;;;20.40;47.40;;;;;;6062531;29;19924;-50
2023/01/09 07:04:16;;;;;;;;;;;20.50;47.60;;;;;;6062240;29;19924;-53
2023/01/09 07:07:19;;;;;;;;;;;20.40;47.30;;;;;;6062374;29;19915;-50
2023/01/09 07:10:20;;;;;;;;;;;20.20;47.40;;;;;;6063074;29;19908;-49
2023/01/09 07:13:21;;;;;;;;;;;20.40;47.30;;;;;;6063223;29;19908;-49
2023/01/09 07:16:23;;;;;;;;;;;20.40;47.50;;;;;;6063019;29;19933;-52
2023/01/09 07:19:24;;;;;;;;;;;20.40;47.30;;;;;;6062990;29;19908;-49
2023/01/09 07:22:26;;;;;;;;;;;20.70;47.60;;;;;;6062911;29;19908;-50
2023/01/09 07:25:27;;;;;;;;;;;20.40;47.30;;;;;;6062736;29;19924;-46
2023/01/09 07:28:29;;;;;;;;;;;20.60;47.60;;;;;;6063038;29;19924;-49
2023/01/09 07:31:30;;;;;;;;;;;20.40;47.20;;;;;;6063350;29;19919;-51
2023/01/09 07:34:31;;;;;;;;;;;20.60;47.50;;;;;;6063702;29;19924;-50
2023/01/09 07:37:33;;;;;;;;;;;20.40;47.30;;;;;;6064986;29;19919;-50
2023/01/09 07:40:35;;;;;;;;;;;20.40;47.20;;;;;;6067691;29;19912;-48
2023/01/09 07:43:37;;;;;;;;;;;20.30;47.20;;;;;;6066384;29;19907;-51
2023/01/09 07:46:38;;;;;;;;;;;20.50;47.10;;;;;;6051158;29;19924;-48
2023/01/09 07:49:40;;;;;;;;;;;20.50;47.00;;;;;;6049169;29;19928;-53
2023/01/09 07:52:43;;;;;;;;;;;20.50;47.30;;;;;;6054768;29;19982;-51
2023/01/09 07:55:45;;;;;;;;;;;20.40;47.10;;;;;;6056898;29;19931;-53
2023/01/09 07:58:46;;;;;;;;;;;20.50;47.30;;;;;;6052282;29;19924;-51
2023/01/09 08:01:47;;;;;;;;;;;20.40;47.20;;;;;;6052202;29;19924;-52
2023/01/09 08:04:49;;;;;;;;;;;20.50;47.50;;;;;;6045699;29;19963;-50
2023/01/09 08:07:51;;;;;;;;;;;20.50;46.10;;;;;;6048458;29;19923;-50
2023/01/09 08:10:54;;;;;;;;;;;20.60;47.20;;;;;;6044220;29;19928;-54
2023/01/09 08:13:55;;;;;;;;;;;20.50;47.00;;;;;;6036116;29;19931;-52
2023/01/09 08:16:57;;;;;;;;;;;20.50;47.40;;;;;;6039724;29;19924;-52
2023/01/09 08:19:59;;;;;;;;;;;20.40;47.00;;;;;;6041947;29;20397;-52
2023/01/09 08:23:02;;;;;;;;;;;20.60;47.30;;;;;;6044028;29;19932;-56
2023/01/09 08:26:04;;;;;;;;;;;20.60;47.10;;;;;;6041144;29;19967;-53
2023/01/09 08:29:06;;;;;;;;;;;20.50;47.00;;;;;;6048631;29;19940;-48
2023/01/09 08:32:07;;;;;;;;;;;20.60;47.00;;;;;;6047646;29;20019;-47
2023/01/09 08:35:09;;;;;;;;;;;20.90;47.10;;;;;;6046660;29;19924;-51
2023/01/09 08:38:12;;;;;;;;;;;20.60;46.80;;;;;;6041589;29;19924;-52
2023/01/09 08:47:42;;;;;;;;;;;20.80;45.80;;;;;;6065260;29;19933;-50
2023/01/09 08:50:43;;;;;;;;;;;20.70;45.50;;;;;;6064127;29;19924;-51
2023/01/09 08:53:45;;;;;;;;;;;20.90;45.70;;;;;;6065205;29;19937;-48
2023/01/09 08:56:47;;;;;;;;;;;20.90;45.80;;;;;;6062784;29;20078;-48
2023/01/09 08:59:48;;;;;;;;;;;20.90;45.50;;;;;;6062866;29;19916;-48
2023/01/09 09:02:50;;;;;;;;;;;20.80;45.30;;;;;;6063735;29;19941;-51
2023/01/09 09:05:52;;;;;;;;;;;20.60;45.60;;;;;;6063336;29;19971;-52
2023/01/09 09:08:54;;;;;;;;;;;20.80;45.60;;;;;;6065857;29;19912;-52
2023/01/09 09:11:55;;;;;;;;;;;21.10;45.80;;;;;;6065398;29;19908;-50
2023/01/09 09:21:36;;;;;;;;;;;20.70;43.30;;;;;;5996981;29;19924;-48
2023/01/09 09:24:37;;;;;;;;;;;20.90;45.50;;;;;;5993807;29;19978;-47
2023/01/09 09:27:39;;;;;;;;;;;20.90;45.60;;;;;;6011506;29;19913;-48
2023/01/09 09:30:41;;;;;;;;;;;20.70;45.10;;;;;;6019209;29;19916;-49
2023/01/09 09:33:42;;;;;;;;;;;21.00;46.00;;;;;;6013137;29;19924;-47
2023/01/09 09:36:44;;;;;;;;;;;21.10;45.30;;;;;;6009894;29;19925;-50
2023/01/09 09:39:46;;;;;;;;;;;21.10;45.30;;;;;;6011351;29;19925;-51
2023/01/09 09:46:20;;;;;;;;;;;21.50;45.00;;;;;;6001330;29;19951;-49
2023/01/09 09:49:26;;;;;;;;;;;21.10;44.80;;;;;;5998716;29;19929;-47
2023/01/09 09:52:30;;;;;;;;;;;21.30;44.60;;;;;;5992938;29;19936;-46
2023/01/09 09:55:33;;;;;;;;;;;21.10;44.50;;;;;;5993569;29;20371;-53
2023/01/09 09:58:37;;;;;;;;;;;21.20;44.00;;;;;;5995372;29;19925;-52
2023/01/09 10:01:40;;;;;;;;;;;21.20;44.50;;;;;;5991944;29;20336;-53
2023/01/09 10:04:47;;;;;;;;;;;21.40;44.50;;;;;;5991690;29;19932;-51
2023/01/09 10:07:50;;;;;;;;;;;21.40;44.50;;;;;;5991300;29;19932;-53
2023/01/09 10:10:52;;;;;;;;;;;21.10;44.40;;;;;;5974994;29;19924;-51
2023/01/09 10:17:34;;;;;;;;;;;21.30;44.40;;;;;;5979177;29;19924;-52
2023/01/09 10:20:51;;;;;;;;;;;21.40;44.50;;;;;;5991948;29;19932;-52
2023/01/09 10:23:58;;;;;;;;;;;21.20;44.40;;;;;;5978024;29;19931;-50
2023/01/09 10:27:05;;;;;;;;;;;21.30;44.40;;;;;;5989291;29;20400;-53
2023/01/09 10:30:15;;;;;;;;;;;21.20;44.50;;;;;;5989303;29;19951;-51
2023/01/09 10:33:26;;;;;;;;;;;20.90;44.20;;;;;;5974000;29;19924;-52
2023/01/09 10:36:33;;;;;;;;;;;21.40;44.60;;;;;;5989791;29;20389;-52
2023/01/09 10:39:38;;;;;;;;;;;21.30;44.50;;;;;;5990835;29;20376;-48
2023/01/09 10:42:42;;;;;;;;;;;21.30;44.50;;;;;;5989212;29;19960;-51
2023/01/09 10:45:49;;;;;;;;;;;21.30;44.60;;;;;;5993224;29;19936;-49
2023/01/09 10:48:53;;;;;;;;;;;21.30;44.50;;;;;;5996420;29;19925;-53
2023/01/09 10:52:00;;;;;;;;;;;21.40;44.50;;;;;;5999184;29;19981;-52
2023/01/09 10:55:04;;;;;;;;;;;21.30;44.30;;;;;;5999363;29;20328;-51
2023/01/09 10:58:10;;;;;;;;;;;21.50;44.10;;;;;;5995897;29;19925;-50
2023/01/09 11:01:11;;;;;;;;;;;21.70;44.60;;;;;;6000255;29;19924;-53
2023/01/09 11:04:18;;;;;;;;;;;21.00;44.30;;;;;;5983883;29;19924;-49
2023/01/09 11:07:20;;;;;;;;;;;21.40;44.30;;;;;;6002139;29;19932;-52
2023/01/09 11:10:22;;;;;;;;;;;21.50;44.30;;;;;;5987254;29;19924;-52
2023/01/09 11:13:28;;;;;;;;;;;21.40;44.50;;;;;;6005067;29;19950;-52
2023/01/09 11:16:29;;;;;;;;;;;21.60;42.20;;;;;;6007764;29;19954;-55
2023/01/09 11:19:32;;;;;;;;;;;21.40;44.30;;;;;;6010011;29;19964;-50
2023/01/09 11:22:42;;;;;;;;;;;21.20;44.20;;;;;;6008609;29;19932;-53
2023/01/09 11:25:50;;;;;;;;;;;21.00;44.20;;;;;;5994813;29;19924;-48
2023/01/09 11:29:04;;;;;;;;;;;21.50;44.50;;;;;;5985923;29;19932;-52
2023/01/09 11:32:18;;;;;;;;;;;21.60;44.60;;;;;;5999926;29;19925;-51
2023/01/09 11:35:22;;;;;;;;;;;21.40;44.60;;;;;;6000949;29;19961;-47
2023/01/09 11:38:23;;;;;;;;;;;21.40;44.60;;;;;;5999868;29;19967;-50
2023/01/09 11:41:27;;;;;;;;;;;21.30;44.70;;;;;;5998238;29;19977;-50
2023/01/09 11:44:30;;;;;;;;;;;21.00;44.40;;;;;;5999122;29;19932;-50
2023/01/09 11:47:37;;;;;;;;;;;21.60;45.00;;;;;;6000477;29;19975;-47
2023/01/09 11:50:38;;;;;;;;;;;21.40;44.70;;;;;;6003677;29;19925;-51
2023/01/09 11:53:42;;;;;;;;;;;21.70;45.00;;;;;;6001235;29;19960;-50
2023/01/09 11:56:45;;;;;;;;;;;21.50;44.60;;;;;;5984731;29;19932;-48
2023/01/09 11:59:47;;;;;;;;;;;21.70;44.80;;;;;;6002060;29;19932;-51
2023/01/09 12:02:53;;;;;;;;;;;21.10;44.60;;;;;;6004764;29;20282;-51
2023/01/09 12:05:55;;;;;;;;;;;;;;;;;;6005079;29;19979;-50
2023/01/09 12:08:58;;;;;;;;;;;21.30;59.40;;;;;;6003214;29;19976;-50
2023/01/09 12:12:02;;;;;;;;;;;21.50;61.30;;;;;;6010308;29;19932;-48
2023/01/09 12:15:15;;;;;;;;;;;21.40;61.30;;;;;;6003711;29;20015;-48
2023/01/09 12:18:22;;;;;;;;;;;21.50;61.20;;;;;;5999984;29;19973;-47
2023/01/09 12:21:29;;;;;;;;;;;21.40;61.10;;;;;;6006680;29;19931;-46
2023/01/09 12:24:38;;;;;;;;;;;21.50;61.20;;;;;;6009767;29;19992;-49
2023/01/09 12:27:52;;;;;;;;;;;21.60;61.20;;;;;;6012178;29;19980;-51
2023/01/09 12:31:01;;;;;;;;;;;21.70;61.40;;;;;;6015908;29;19920;-50
2023/01/09 12:34:06;;;;;;;;;;;21.60;61.00;;;;;;6016954;29;19950;-50
2023/01/09 12:37:16;;;;;;;;;;;21.80;61.20;;;;;;6015251;29;20475;-51
2023/01/09 12:40:26;;;;;;;;;;;21.60;61.00;;;;;;6017872;29;19924;-49
2023/01/09 12:43:33;;;;;;;;;;;21.80;61.10;;;;;;6017328;29;20277;-50
2023/01/09 12:46:41;;;;;;;;;;;21.60;61.00;;;;;;6020008;29;19929;-50
2023/01/09 12:49:46;;;;;;;;;;;21.90;61.20;;;;;;6207453;23;19924;-50
2023/01/09 13:06:47;;;;;;;;;;;21.70;58.90;;;;;;7187905;23;19916;-48
2023/01/09 13:30:43;;;;;;;;;;;21.90;58.40;;;;;;6079826;29;19920;-48
2023/01/09 13:33:48;;;;;;;;;;;21.70;60.50;;;;;;6076857;29;19967;-51
2023/01/09 13:36:50;;;;;;;;;;;21.90;60.70;;;;;;6072653;29;19931;-48
2023/01/09 13:39:54;;;;;;;;;;;21.70;60.60;;;;;;6074818;29;19997;-50
2023/01/09 13:42:57;;;;;;;;;;;21.90;60.80;;;;;;6072823;29;19924;-49
2023/01/09 13:45:59;;;;;;;;;;;21.60;60.60;;;;;;6071415;29;19924;-51
2023/01/09 13:49:02;;;;;;;;;;;22.00;61.10;;;;;;6068436;29;19976;-49
2023/01/09 13:52:04;;;;;;;;;;;21.60;60.80;;;;;;6070165;29;19924;-51
2023/01/09 13:55:20;;;;;;;;;;;21.90;61.00;;;;;;6072551;29;19948;-49
2023/01/09 13:58:23;;;;;;;;;;;21.70;60.80;;;;;;6080551;29;19934;-49
2023/01/09 14:01:39;;;;;;;;;;;21.80;60.90;;;;;;6078172;29;19924;-50
2023/01/09 14:04:43;;;;;;;;;;;21.70;60.90;;;;;;6072300;29;20024;-54
2023/01/09 14:07:46;;;;;;;;;;;21.80;60.90;;;;;;6080686;29;20014;-53
2023/01/09 14:10:48;;;;;;;;;;;21.70;60.90;;;;;;6081676;29;19924;-56
2023/01/09 14:13:54;;;;;;;;;;;21.70;60.90;;;;;;6061444;29;19931;-47
2023/01/09 14:16:57;;;;;;;;;;;21.60;60.90;;;;;;6066061;29;19931;-51
2023/01/09 14:20:01;;;;;;;;;;;21.90;61.10;;;;;;6070027;29;20277;-47
2023/01/09 14:23:03;;;;;;;;;;;21.70;61.10;;;;;;6076126;29;19923;-48
2023/01/09 14:26:41;;;;;;;;;;;21.80;60.70;;;;;;6066045;29;19930;-53
2023/01/09 14:29:43;;;;;;;;;;;21.70;61.00;;;;;;6076859;29;19971;-52
2023/01/09 14:32:54;;;;;;;;;;;21.80;60.90;;;;;;6077553;29;19924;-53
2023/01/09 14:36:02;;;;;;;;;;;21.80;60.90;;;;;;6081306;29;19937;-53
2023/01/09 14:39:06;;;;;;;;;;;22.10;60.90;;;;;;6079293;29;19972;-51
2023/01/09 14:42:14;;;;;;;;;;;21.80;60.80;;;;;;6082370;29;19931;-52
2023/01/09 14:45:18;;;;;;;;;;;21.90;60.80;;;;;;6123357;23;19919;-52
2023/01/09 14:48:21;;;;;;;;;;;21.80;60.90;;;;;;6343840;23;19912;-54
2023/01/09 14:54:47;;;;;;;;;;;21.70;58.70;;;;;;5990440;29;19925;-55
2023/01/09 14:57:53;;;;;;;;;;;21.90;60.70;;;;;;5985338;29;19925;-49
2023/01/09 15:00:57;;;;;;;;;;;22.00;60.50;;;;;;5990792;29;19913;-47
2023/01/09 15:04:00;;;;;;;;;;;21.90;60.50;;;;;;5994649;29;19909;-48
2023/01/09 15:07:02;;;;;;;;;;;22.20;60.70;;;;;;5992249;29;19913;-48
2023/01/09 15:10:05;;;;;;;;;;;21.90;60.60;;;;;;5989453;29;19925;-55
2023/01/09 16:33:52;;;;;;;;;;;22.00;49.20;;;;;;7261970;23;19923;-48
2023/01/09 16:36:53;;;;;;;;;;;21.90;51.00;;;;;;6491788;24;19929;-51
2023/01/09 16:43:26;;;;;;;;;;;22.00;48.70;;;;;;7271533;23;20008;-53
2023/01/09 16:46:28;;;;;;;;;;;22.40;48.50;;;;;;6066903;29;19908;-50
2023/01/09 16:49:30;;;;;;;;;;;22.10;48.40;;;;;;6392823;24;19912;-54
2023/01/09 16:52:31;;;;;;;;;;;21.70;48.40;;;;;;6165418;23;19924;-51
2023/01/09 16:55:32;;;;;;;;;;;22.30;68.10;;;;;;6036287;29;19924;-55
2023/01/09 16:58:34;;;;;;;;;;;21.70;67.20;;;;;;6036157;29;20349;-55
2023/01/09 17:01:36;;;;;;;;;;;21.90;67.30;;;;;;6036194;29;19967;-54
2023/01/09 17:04:38;;;;;;;;;;;21.90;67.50;;;;;;6036664;29;19967;-53
2023/01/09 17:07:39;;;;;;;;;;;21.90;67.60;;;;;;6035703;29;20022;-54
2023/01/09 17:10:40;;;;;;;;;;;21.70;67.40;;;;;;6035860;29;20444;-54
2023/01/09 17:13:42;;;;;;;;;;;22.00;67.70;;;;;;6036232;29;19924;-55
2023/01/09 17:16:44;;;;;;;;;;;21.80;67.30;;;;;;6035917;29;19924;-54
2023/01/09 17:19:46;;;;;;;;;;;21.90;67.50;;;;;;6036615;29;19928;-56
2023/01/09 17:22:48;;;;;;;;;;;21.90;67.60;;;;;;6035923;29;19924;-53
2023/01/09 17:29:06;;;;;;;;;;;21.80;67.50;;;;;;6020495;29;19924;-55
2023/01/09 17:32:10;;;;;;;;;;;22.10;67.80;;;;;;6035406;29;19924;-55
2023/01/09 17:35:12;;;;;;;;;;;21.90;67.70;;;;;;6019205;29;19931;-55
2023/01/09 17:38:14;;;;;;;;;;;22.00;67.80;;;;;;6035699;29;19992;-55
2023/01/09 17:41:15;;;;;;;;;;;21.70;67.50;;;;;;6035303;29;19980;-54
2023/01/09 17:44:17;;;;;;;;;;;21.80;66.80;;;;;;6035854;29;19924;-54
2023/01/09 17:47:18;;;;;;;;;;;21.70;67.60;;;;;;6035485;29;19931;-53
2023/01/09 17:50:20;;;;;;;;;;;21.70;67.70;;;;;;6035472;29;19924;-55
2023/01/09 17:53:23;;;;;;;;;;;21.70;67.60;;;;;;6035059;29;20399;-53
2023/01/09 17:56:26;;;;;;;;;;;21.90;67.90;;;;;;6035258;29;20414;-53
2023/01/09 17:59:29;;;;;;;;;;;21.60;67.60;;;;;;6018773;29;20412;-54
2023/01/09 18:02:30;;;;;;;;;;;21.80;67.90;;;;;;6035568;29;19931;-55
2023/01/09 18:05:32;;;;;;;;;;;21.60;67.70;;;;;;6035517;29;19924;-54
2023/01/09 18:08:34;;;;;;;;;;;21.70;67.80;;;;;;6035006;29;19951;-55
2023/01/09 18:11:35;;;;;;;;;;;21.50;67.60;;;;;;6034671;29;19928;-55
2023/01/09 18:14:37;;;;;;;;;;;21.70;67.90;;;;;;6034812;29;19924;-55
2023/01/09 18:17:39;;;;;;;;;;;21.50;67.50;;;;;;6034528;29;19924;-54
2023/01/09 18:20:42;;;;;;;;;;;21.80;68.00;;;;;;6033988;29;19924;-55
2023/01/09 18:23:43;;;;;;;;;;;21.40;67.70;;;;;;6034722;29;19928;-54
2023/01/09 18:26:44;;;;;;;;;;;21.90;68.00;;;;;;6034768;29;20285;-54
2023/01/09 18:29:46;;;;;;;;;;;21.50;67.90;;;;;;6035187;29;19927;-55
2023/01/09 18:32:47;;;;;;;;;;;21.80;68.00;;;;;;6034978;29;20023;-54
2023/01/09 18:35:49;;;;;;;;;;;21.40;67.70;;;;;;6034823;29;19923;-55
2023/01/09 18:38:52;;;;;;;;;;;21.60;67.90;;;;;;6035031;29;20328;-55
2023/01/09 18:41:53;;;;;;;;;;;21.40;67.80;;;;;;6034179;29;19944;-55
2023/01/09 18:44:54;;;;;;;;;;;21.40;67.90;;;;;;6034618;29;19928;-55
2023/01/09 18:47:55;;;;;;;;;;;21.50;67.90;;;;;;6034307;29;20285;-53
2023/01/09 18:51:01;;;;;;;;;;;21.30;67.90;;;;;;6033883;29;19924;-55
2023/01/09 18:54:03;;;;;;;;;;;21.20;67.60;;;;;;6034492;29;19924;-55
2023/01/09 18:57:04;;;;;;;;;;;21.50;67.70;;;;;;6033855;29;19924;-53
2023/01/09 19:00:07;;;;;;;;;;;21.10;67.60;;;;;;6034252;29;19956;-54
2023/01/09 19:03:12;;;;;;;;;;;21.50;67.70;;;;;;6034128;29;19931;-54
2023/01/09 19:06:14;;;;;;;;;;;21.20;67.60;;;;;;6034902;29;20023;-56
2023/01/09 19:09:15;;;;;;;;;;;21.50;67.70;;;;;;6034077;29;19935;-55
2023/01/09 19:12:16;;;;;;;;;;;21.00;67.40;;;;;;6033997;29;19924;-52
2023/01/09 19:15:18;;;;;;;;;;;21.60;67.90;;;;;;6034231;29;19947;-55
2023/01/09 19:18:19;;;;;;;;;;;21.20;67.50;;;;;;6034273;29;19924;-55
2023/01/09 19:21:22;;;;;;;;;;;21.50;67.90;;;;;;6033878;29;19956;-55
2023/01/09 19:24:24;;;;;;;;;;;21.20;67.70;;;;;;6033790;29;19924;-55
2023/01/09 19:27:27;;;;;;;;;;;21.50;67.80;;;;;;6017861;29;19924;-55
2023/01/09 19:30:28;;;;;;;;;;;21.10;67.50;;;;;;6033757;29;20038;-53
2023/01/09 19:33:29;;;;;;;;;;;21.50;67.90;;;;;;6034737;29;19924;-55
2023/01/09 19:36:31;;;;;;;;;;;20.90;67.50;;;;;;6037898;29;19940;-55
2023/01/09 19:39:33;;;;;;;;;;;21.20;67.70;;;;;;6037761;29;20381;-55
2023/01/09 19:42:34;;;;;;;;;;;21.20;67.50;;;;;;6037302;29;19931;-54
2023/01/09 19:45:37;;;;;;;;;;;21.40;67.90;;;;;;6037868;29;19928;-55
2023/01/09 19:48:38;;;;;;;;;;;21.10;67.60;;;;;;6037373;29;19978;-55
2023/01/09 19:51:41;;;;;;;;;;;21.20;67.90;;;;;;6037677;29;20293;-55
2023/01/09 19:54:42;;;;;;;;;;;21.20;67.90;;;;;;6020943;29;19924;-55
2023/01/09 19:57:44;;;;;;;;;;;21.20;67.90;;;;;;6037274;29;20289;-56
2023/01/09 20:00:45;;;;;;;;;;;21.10;67.60;;;;;;6037411;29;20346;-55
2023/01/09 20:03:47;;;;;;;;;;;21.40;68.00;;;;;;6037326;29;20266;-55